Time;durP1;ratioP1;P1;durP2;ratioP2;P2;SDS_P1;SDS_P2;PMS_P1;PMS_P2;Temp;Humidity;BMP_temperature;BMP_pressure;BME280_temperature;BME280_humidity;BME280_pressure;Samples;Min_cycle;Max_cycle;Signal;HPM_P1;HPM_P2
2023/09/24 00:00:32;;;;;;;6.35;5.10;;;;;;;9.32;100.00;102107.41;5034391;28;20036;-65
2023/09/24 00:02:58;;;;;;;9.05;5.28;;;;;;;9.31;100.00;102106.53;5032883;28;20100;-66
2023/09/24 00:05:24;;;;;;;10.18;5.65;;;;;;;9.32;100.00;102116.06;5027682;28;20096;-65
2023/09/24 00:07:49;;;;;;;6.97;5.43;;;;;;;9.33;100.00;102116.97;5028182;28;20045;-66
2023/09/24 00:10:14;;;;;;;7.50;5.55;;;;;;;9.34;100.00;102113.56;5027535;28;20025;-66
2023/09/24 00:12:40;;;;;;;13.40;6.13;;;;;;;9.35;100.00;102112.78;5028302;28;20018;-65
2023/09/24 00:15:07;;;;;;;8.38;5.60;;;;;;;9.35;100.00;102113.66;5028188;28;20048;-66
2023/09/24 00:17:32;;;;;;;8.75;5.85;;;;;;;9.34;100.00;102119.63;5027582;28;20052;-65
2023/09/24 00:19:58;;;;;;;7.63;5.93;;;;;;;9.37;100.00;102122.38;5027697;28;20064;-66
2023/09/24 00:22:23;;;;;;;6.95;5.18;;;;;;;9.34;100.00;102124.81;5028476;28;20087;-66
2023/09/24 00:24:49;;;;;;;7.80;5.75;;;;;;;9.31;100.00;102127.22;5014951;28;20053;-66
2023/09/24 00:27:15;;;;;;;9.55;5.82;;;;;;;9.28;100.00;102126.16;5028396;28;20167;-65
2023/09/24 00:29:40;;;;;;;6.93;5.60;;;;;;;9.25;100.00;102130.34;5027739;28;20021;-66
2023/09/24 00:32:05;;;;;;;8.10;6.53;;;;;;;9.24;100.00;102128.56;5027934;28;20029;-66
2023/09/24 00:34:30;;;;;;;10.07;6.70;;;;;;;9.24;100.00;102128.56;5027862;28;20477;-66
2023/09/24 00:36:57;;;;;;;10.25;7.15;;;;;;;9.23;100.00;102131.94;5027469;28;20083;-66
2023/09/24 00:39:23;;;;;;;7.55;6.82;;;;;;;9.23;100.00;102128.47;5032831;28;20049;-65
2023/09/24 00:41:49;;;;;;;10.40;8.20;;;;;;;9.23;100.00;102128.47;5046893;28;20029;-65
2023/09/24 00:44:15;;;;;;;10.68;8.25;;;;;;;9.22;100.00;102126.69;5046951;28;20025;-66
2023/09/24 00:46:44;;;;;;;10.80;8.23;;;;;;;9.22;100.00;102131.84;5047053;28;20029;-65
2023/09/24 00:49:12;;;;;;;12.13;8.13;;;;;;;9.23;100.00;102133.63;5025721;28;20027;-66
2023/09/24 00:51:37;;;;;;;10.73;9.10;;;;;;;9.24;100.00;102140.59;5049713;28;20021;-66
2023/09/24 00:54:03;;;;;;;10.23;9.18;;;;;;;9.24;100.00;102140.59;5050839;28;20032;-65
2023/09/24 00:56:29;;;;;;;10.27;9.23;;;;;;;9.25;100.00;102147.56;5050151;28;20481;-65
2023/09/24 00:58:55;;;;;;;12.02;9.70;;;;;;;9.27;100.00;102147.63;5049573;28;20050;-66
2023/09/24 01:01:21;;;;;;;11.43;10.00;;;;;;;9.27;100.00;102143.38;5049407;28;20029;-66
2023/09/24 01:03:48;;;;;;;10.32;9.32;;;;;;;9.28;100.00;102146.84;5050439;28;20028;-65
2023/09/24 01:06:14;;;;;;;9.32;8.43;;;;;;;9.28;100.00;102141.69;5048658;28;20032;-65
2023/09/24 01:08:42;;;;;;;9.75;8.15;;;;;;;9.24;100.00;102145.78;5050202;28;20075;-65
2023/09/24 01:11:07;;;;;;;12.60;8.07;;;;;;;9.20;100.00;102149.88;5049405;28;20028;-66
2023/09/24 01:13:40;;;;;;;8.52;7.63;;;;;;;9.16;100.00;102144.41;5049830;28;20037;-66
2023/09/24 01:16:09;;;;;;;9.00;8.10;;;;;;;9.13;100.00;102140.88;5049127;28;20021;-66
2023/09/24 01:18:37;;;;;;;9.02;8.07;;;;;;;9.08;100.00;102146.56;5050254;28;20043;-65
2023/09/24 01:21:07;;;;;;;10.32;8.45;;;;;;;9.06;100.00;102145.59;5048654;28;20103;-66
2023/09/24 01:23:36;;;;;;;9.20;7.07;;;;;;;9.03;100.00;102141.09;5049897;28;20071;-66
2023/09/24 01:26:02;;;;;;;8.60;7.18;;;;;;;9.00;100.00;102151.28;5049234;28;20263;-67
2023/09/24 01:28:27;;;;;;;8.95;8.05;;;;;;;8.99;100.00;102145.19;5049890;28;20053;-66
2023/09/24 01:30:52;;;;;;;8.98;7.63;;;;;;;8.99;100.00;102139.16;5048257;28;20503;-65
2023/09/24 01:33:19;;;;;;;8.38;7.57;;;;;;;8.98;100.00;102147.69;5049731;28;20017;-66
2023/09/24 01:35:45;;;;;;;10.05;7.57;;;;;;;8.97;100.00;102146.84;5048266;28;20104;-66
2023/09/24 01:38:11;;;;;;;9.40;8.15;;;;;;;8.98;100.00;102147.69;5039765;28;20549;-65
2023/09/24 01:40:37;;;;;;;11.80;10.65;;;;;;;8.99;100.00;102144.34;5033543;28;20499;-65
2023/09/24 01:43:05;;;;;;;14.25;10.50;;;;;;;8.98;100.00;102130.50;5040118;28;20021;-65
2023/09/24 01:45:33;;;;;;;14.68;13.18;;;;;;;9.00;100.00;102133.19;5029301;28;20111;-65
2023/09/24 01:47:58;;;;;;;18.77;17.00;;;;;;;9.01;100.00;102133.25;5030314;28;20091;-66
2023/09/24 01:50:27;;;;;;;10.27;8.93;;;;;;;9.00;100.00;102131.50;5030442;28;20072;-65
2023/09/24 01:52:53;;;;;;;8.55;7.75;;;;;;;8.97;100.00;102139.06;5029334;28;20025;-66
2023/09/24 01:55:19;;;;;;;11.60;8.77;;;;;;;8.94;100.00;102143.16;5022333;28;20025;-66
2023/09/24 01:57:45;;;;;;;11.88;10.77;;;;;;;8.88;100.00;102136.84;5029958;28;20048;-65
2023/09/24 02:00:23;;;;;;;13.80;12.48;;;;;;;8.87;100.00;102140.19;5030223;28;20030;-65
2023/09/24 02:02:49;;;;;;;13.95;12.57;;;;;;;8.85;100.00;102140.94;5030164;28;20029;-65
2023/09/24 02:05:15;;;;;;;14.02;12.68;;;;;;;8.84;100.00;102137.44;5030813;28;20025;-65
2023/09/24 02:07:40;;;;;;;13.98;12.73;;;;;;;8.80;100.00;102140.63;5029914;28;20053;-66
2023/09/24 02:10:07;;;;;;;13.95;11.77;;;;;;;8.80;100.00;102135.47;5030574;28;20027;-65
2023/09/24 02:12:36;;;;;;;11.98;10.95;;;;;;;8.79;100.00;102135.38;5029658;28;20025;-65
2023/09/24 02:15:12;;;;;;;12.15;10.95;;;;;;;8.76;100.00;102136.09;5029415;28;20110;-65
2023/09/24 02:17:41;;;;;;;11.85;10.63;;;;;;;8.76;100.00;102143.84;5029730;28;20041;-66
2023/09/24 02:20:31;;;;;;;12.05;9.38;;;;;;;8.73;100.00;102149.72;5030024;28;20022;-65
2023/09/24 02:22:58;;;;;;;9.48;8.52;;;;;;;8.72;100.00;102155.69;5029750;28;20432;-65
2023/09/24 02:25:31;;;;;;;9.73;8.75;;;;;;;8.71;100.00;102161.66;5029813;28;20485;-65
2023/09/24 02:27:57;;;;;;;10.93;9.75;;;;;;;8.70;100.00;102158.97;5029489;28;20030;-66
2023/09/24 02:30:25;;;;;;;10.02;9.00;;;;;;;8.68;100.00;102160.56;5029689;28;20086;-65
2023/09/24 02:32:51;;;;;;;10.07;7.90;;;;;;;8.68;100.00;102170.91;5029758;28;20067;-65
2023/09/24 02:35:17;;;;;;;10.20;8.10;;;;;;;8.69;100.00;102165.81;5029798;28;20117;-66
2023/09/24 02:37:50;;;;;;;10.10;7.85;;;;;;;8.70;100.00;102162.47;5030336;28;20033;-65
2023/09/24 02:42:48;;;;;;;11.75;7.90;;;;;;;8.71;100.00;102169.41;5048524;28;20032;-66
2023/09/24 02:45:15;;;;;;;9.80;7.65;;;;;;;8.72;100.00;102162.56;5047641;28;20032;-66
2023/09/24 02:47:41;;;;;;;8.25;7.38;;;;;;;8.73;100.00;102162.63;5048271;28;20017;-65
2023/09/24 02:50:08;;;;;;;10.15;7.30;;;;;;;8.72;100.00;102165.13;5048211;28;20041;-66
2023/09/24 02:52:35;;;;;;;9.18;7.38;;;;;;;8.71;100.00;102164.22;5040215;28;20029;-65
2023/09/24 02:55:00;;;;;;;8.43;7.65;;;;;;;8.71;100.00;102163.34;5030215;28;20055;-65
2023/09/24 02:57:26;;;;;;;11.23;7.70;;;;;;;8.69;100.00;102170.13;5047912;28;20016;-65
2023/09/24 02:59:51;;;;;;;9.93;7.93;;;;;;;8.69;100.00;102159.78;5047595;28;20021;-66
2023/09/24 03:02:17;;;;;;;9.30;7.75;;;;;;;8.69;100.00;102159.78;5048441;28;20025;-65
2023/09/24 03:04:42;;;;;;;7.35;6.65;;;;;;;8.67;100.00;102174.31;5047780;28;20021;-65
2023/09/24 03:07:09;;;;;;;8.52;7.20;;;;;;;8.62;100.00;102159.41;5048031;28;20505;-65
2023/09/24 03:09:34;;;;;;;8.23;7.18;;;;;;;8.60;100.00;102168.75;5046871;28;20570;-65
2023/09/24 03:11:59;;;;;;;7.88;7.03;;;;;;;8.58;100.00;102174.63;5047409;28;20052;-65
2023/09/24 03:14:24;;;;;;;7.85;7.05;;;;;;;8.54;100.00;102178.69;5047395;28;20520;-66
2023/09/24 03:16:50;;;;;;;8.98;6.97;;;;;;;8.51;100.00;102183.63;5047928;28;20342;-65
2023/09/24 03:19:15;;;;;;;10.85;7.93;;;;;;;8.47;100.00;102177.38;5046595;28;20028;-65
2023/09/24 03:21:40;;;;;;;12.07;10.32;;;;;;;8.43;100.00;102183.19;5048123;28;20139;-66
2023/09/24 03:24:10;;;;;;;10.25;9.25;;;;;;;8.40;100.00;102178.69;5047477;28;20028;-65
2023/09/24 03:26:35;;;;;;;12.20;11.00;;;;;;;8.38;100.00;102184.59;5047814;28;20047;-65
2023/09/24 03:29:03;;;;;;;12.75;11.55;;;;;;;8.36;100.00;102187.06;5047533;28;20021;-65
2023/09/24 03:31:28;;;;;;;14.95;13.40;;;;;;;8.33;100.00;102181.69;5047813;28;20492;-65
2023/09/24 03:33:53;;;;;;;13.65;12.23;;;;;;;8.30;100.00;102191.84;5047291;28;20033;-66
2023/09/24 03:36:18;;;;;;;15.18;13.05;;;;;;;8.27;100.00;102195.09;5047424;28;20134;-65
2023/09/24 03:38:45;;;;;;;13.75;12.40;;;;;;;8.27;100.00;102194.25;5032585;28;20581;-65
2023/09/24 03:41:10;;;;;;;13.15;10.50;;;;;;;8.25;100.00;102188.06;5028353;28;20029;-65
2023/09/24 03:43:36;;;;;;;11.10;9.57;;;;;;;8.23;100.00;102194.84;5028182;28;20390;-65
2023/09/24 03:46:01;;;;;;;9.80;8.80;;;;;;;8.23;100.00;102200.91;5027910;28;20029;-65
2023/09/24 03:48:27;;;;;;;8.88;7.97;;;;;;;8.22;100.00;102195.63;5028518;28;20072;-65
2023/09/24 03:50:54;;;;;;;7.90;7.15;;;;;;;8.21;100.00;102199.00;5027627;28;20029;-65
2023/09/24 03:53:19;;;;;;;8.27;7.50;;;;;;;8.23;100.00;102202.56;5028434;28;20033;-66
2023/09/24 03:55:45;;;;;;;9.32;7.00;;;;;;;8.23;100.00;102202.56;5028000;28;20469;-65
2023/09/24 03:58:11;;;;;;;9.77;7.63;;;;;;;8.24;100.00;102206.97;5028435;28;20439;-65
2023/09/24 04:00:36;;;;;;;12.27;9.10;;;;;;;8.23;100.00;102205.16;5027528;28;20029;-65
2023/09/24 04:03:03;;;;;;;7.57;6.88;;;;;;;8.20;100.00;102204.97;5027848;28;20497;-65
2023/09/24 04:05:30;;;;;;;8.82;5.70;;;;;;;8.19;100.00;102201.50;5027459;28;20037;-65
2023/09/24 04:07:55;;;;;;;7.40;5.55;;;;;;;8.19;100.00;102200.59;5027169;28;20049;-66
2023/09/24 04:10:23;;;;;;;6.55;5.90;;;;;;;8.20;100.00;102207.56;5027295;28;20087;-65
2023/09/24 04:12:52;;;;;;;7.30;5.90;;;;;;;8.17;100.00;102209.13;5028271;28;20056;-65
2023/09/24 04:15:27;;;;;;;7.03;5.60;;;;;;;8.18;100.00;102217.78;5027847;28;20025;-65
2023/09/24 04:17:55;;;;;;;8.02;6.55;;;;;;;8.17;100.00;102216.88;5027274;28;20033;-65
2023/09/24 04:20:20;;;;;;;6.82;5.85;;;;;;;8.18;100.00;102215.22;5028158;28;20033;-65
2023/09/24 04:22:47;;;;;;;9.40;6.00;;;;;;;8.17;100.00;102218.56;5045032;28;20675;-65
2023/09/24 04:25:17;;;;;;;6.57;5.97;;;;;;;8.14;100.00;102215.78;5044221;28;20121;-65
2023/09/24 04:27:43;;;;;;;10.00;5.90;;;;;;;8.12;100.00;102213.13;5053489;28;20079;-65
2023/09/24 04:30:16;;;;;;;7.70;5.90;;;;;;;8.11;100.00;102220.78;5053451;28;20492;-65
2023/09/24 04:32:48;;;;;;;9.02;6.15;;;;;;;8.07;100.00;102219.69;5048686;28;20088;-65
2023/09/24 04:35:14;;;;;;;11.30;6.45;;;;;;;8.06;100.00;102225.63;5033893;28;20037;-65
2023/09/24 04:37:39;;;;;;;8.50;6.47;;;;;;;8.04;100.00;102229.81;5032548;28;20032;-65
2023/09/24 04:40:07;;;;;;;8.90;6.45;;;;;;;8.00;100.00;102220.06;5033631;28;20057;-66
2023/09/24 04:42:34;;;;;;;10.27;5.80;;;;;;;7.97;100.00;102223.34;5033825;28;20036;-65
2023/09/24 04:45:00;;;;;;;7.95;6.20;;;;;;;7.95;100.00;102224.06;5046939;28;20108;-65
2023/09/24 04:47:25;;;;;;;10.60;6.22;;;;;;;7.92;100.00;102225.63;5047045;28;20021;-66
2023/09/24 04:49:50;;;;;;;9.45;6.50;;;;;;;7.91;100.00;102229.03;5033433;28;20033;-65
2023/09/24 04:52:15;;;;;;;6.70;6.10;;;;;;;7.89;100.00;102230.59;5020896;28;20037;-65
2023/09/24 04:54:40;;;;;;;10.85;7.10;;;;;;;7.90;100.00;102227.22;5025520;28;20820;-65
2023/09/24 04:57:07;;;;;;;7.32;6.18;;;;;;;7.89;100.00;102225.44;5026602;28;20037;-65
2023/09/24 04:59:33;;;;;;;6.60;5.57;;;;;;;7.87;100.00;102226.13;5028237;28;20935;-65
2023/09/24 05:01:58;;;;;;;7.80;5.82;;;;;;;7.84;100.00;102221.66;5028728;28;20052;-65
2023/09/24 05:04:23;;;;;;;5.93;5.20;;;;;;;7.82;100.00;102225.84;5026377;28;20026;-64
2023/09/24 05:06:49;;;;;;;8.27;6.32;;;;;;;7.80;100.00;102225.75;5029504;28;20107;-64
2023/09/24 05:09:14;;;;;;;11.60;6.97;;;;;;;7.80;100.00;102224.84;5025507;28;20037;-64
2023/09/24 05:11:39;;;;;;;7.25;5.72;;;;;;;7.79;100.00;102234.25;5034092;28;20051;-64
2023/09/24 05:14:05;;;;;;;8.63;5.68;;;;;;;7.79;100.00;102233.34;5035398;28;20037;-65
2023/09/24 05:16:30;;;;;;;7.13;6.07;;;;;;;7.76;100.00;102234.06;5036467;28;20473;-65
2023/09/24 05:18:56;;;;;;;8.50;6.07;;;;;;;7.75;100.00;102237.44;5033765;28;20509;-65
2023/09/24 05:21:22;;;;;;;6.97;5.63;;;;;;;7.73;100.00;102243.28;5035476;28;20059;-64
2023/09/24 05:23:47;;;;;;;9.68;5.45;;;;;;;7.71;100.00;102243.19;5033005;28;20065;-65
2023/09/24 05:26:14;;;;;;;7.22;5.78;;;;;;;7.71;100.00;102242.28;5028097;28;20024;-64
2023/09/24 05:28:40;;;;;;;8.75;5.57;;;;;;;7.67;100.00;102241.19;5036913;28;20031;-65
2023/09/24 05:31:05;;;;;;;8.48;6.68;;;;;;;7.68;100.00;102254.19;5038495;28;20505;-64
2023/09/24 05:33:31;;;;;;;8.25;5.47;;;;;;;7.68;100.00;102250.72;5026048;28;20036;-64
2023/09/24 05:35:56;;;;;;;9.25;5.97;;;;;;;7.69;100.00;102252.50;5034268;28;20033;-64
2023/09/24 05:38:21;;;;;;;7.93;6.00;;;;;;;7.70;100.00;102256.88;5023625;28;20957;-64
2023/09/24 05:40:47;;;;;;;7.00;5.53;;;;;;;7.71;100.00;102265.50;5025399;28;20340;-64
2023/09/24 05:43:12;;;;;;;8.02;5.78;;;;;;;7.70;100.00;102267.19;5020351;28;20501;-64
2023/09/24 05:45:45;;;;;;;10.02;5.32;;;;;;;7.68;100.00;102267.09;5025726;28;20036;-64
2023/09/24 05:48:12;;;;;;;10.07;6.00;;;;;;;7.68;100.00;102269.66;5022416;28;20033;-65
2023/09/24 05:50:38;;;;;;;9.73;5.97;;;;;;;7.71;100.00;102275.84;5026574;28;20064;-65
2023/09/24 05:53:03;;;;;;;7.60;6.05;;;;;;;7.72;100.00;102273.34;5024342;28;20033;-64
2023/09/24 05:55:29;;;;;;;6.40;5.47;;;;;;;7.75;100.00;102283.00;5025679;28;20033;-64
2023/09/24 05:57:54;;;;;;;7.85;5.47;;;;;;;7.79;100.00;102284.97;5025103;28;20474;-64
2023/09/24 06:00:19;;;;;;;5.80;5.05;;;;;;;7.79;100.00;102291.03;5025477;28;20057;-65
2023/09/24 06:02:44;;;;;;;11.80;5.43;;;;;;;7.81;100.00;102289.44;5026050;28;20044;-64
2023/09/24 06:05:10;;;;;;;6.63;5.65;;;;;;;7.84;100.00;102288.78;5025051;28;20029;-65
2023/09/24 06:07:35;;;;;;;7.03;5.78;;;;;;;7.86;100.00;102286.28;5025673;28;20522;-65
2023/09/24 06:10:04;;;;;;;7.15;5.72;;;;;;;7.90;100.00;102289.16;5024553;28;20022;-65
2023/09/24 06:12:33;;;;;;;10.10;6.22;;;;;;;7.93;100.00;102285.91;5027018;28;20029;-65
2023/09/24 06:14:59;;;;;;;7.70;5.10;;;;;;;7.96;100.00;102287.78;5022842;28;20040;-65
2023/09/24 06:17:24;;;;;;;6.68;5.20;;;;;;;7.97;100.00;102292.16;5031594;28;20173;-65
2023/09/24 06:19:49;;;;;;;8.05;5.38;;;;;;;7.98;100.00;102289.69;5025203;28;20030;-65
2023/09/24 06:22:14;;;;;;;7.00;5.50;;;;;;;8.03;100.00;102292.56;5032836;28;20512;-65
2023/09/24 06:24:40;;;;;;;8.63;5.30;;;;;;;8.05;100.00;102289.31;5028898;28;20096;-65
2023/09/24 06:27:05;;;;;;;6.88;4.97;;;;;;;8.10;100.00;102292.16;5031851;28;20112;-65
2023/09/24 06:29:34;;;;;;;8.82;5.53;;;;;;;8.13;100.00;102292.34;5026820;28;20586;-65
2023/09/24 06:31:59;;;;;;;6.55;5.70;;;;;;;8.19;100.00;102301.31;5035625;28;20313;-65
2023/09/24 06:34:26;;;;;;;9.88;5.28;;;;;;;8.23;100.00;102298.13;5022749;28;20037;-65
2023/09/24 06:36:51;;;;;;;9.75;5.22;;;;;;;8.27;100.00;102305.28;5036012;28;20037;-65
2023/09/24 06:39:16;;;;;;;6.75;5.53;;;;;;;8.32;100.00;102305.59;5017576;28;20029;-65
2023/09/24 06:41:42;;;;;;;6.72;4.78;;;;;;;8.37;100.00;102312.84;5024890;28;20028;-65
2023/09/24 06:44:10;;;;;;;6.03;4.97;;;;;;;8.40;100.00;102313.03;5019279;28;20400;-65
2023/09/24 06:46:35;;;;;;;7.60;5.88;;;;;;;8.45;100.00;102315.03;5023713;28;20057;-65
2023/09/24 06:49:00;;;;;;;10.45;5.35;;;;;;;8.50;100.00;102311.94;5019573;28;20105;-65
2023/09/24 06:51:26;;;;;;;7.80;5.05;;;;;;;8.56;100.00;102319.25;5024559;28;20116;-64
2023/09/24 06:53:53;;;;;;;7.07;4.80;;;;;;;8.61;100.00;102312.69;5025363;28;20032;-65
2023/09/24 06:56:18;;;;;;;9.43;5.18;;;;;;;8.64;100.00;102318.03;5025125;28;20033;-64
2023/09/24 06:58:44;;;;;;;7.13;4.63;;;;;;;8.68;100.00;102319.13;5026509;28;20029;-64
2023/09/24 07:01:09;;;;;;;9.85;5.40;;;;;;;8.71;100.00;102313.22;5024639;28;20109;-64
2023/09/24 07:03:35;;;;;;;6.50;4.85;;;;;;;8.75;100.00;102322.97;5025791;28;20033;-65
2023/09/24 07:06:03;;;;;;;10.23;5.13;;;;;;;8.79;100.00;102322.38;5023698;28;20069;-65
2023/09/24 07:08:29;;;;;;;7.97;5.18;;;;;;;8.84;100.00;102323.56;5027090;28;20060;-65
2023/09/24 07:11:22;;;;;;;5.70;4.88;;;;;;;8.87;100.00;102316.00;5021839;28;20444;-65
2023/09/24 07:13:47;;;;;;;10.15;4.68;;;;;;;8.92;100.00;102323.16;5023907;28;20041;-65
2023/09/24 07:16:13;;;;;;;7.47;4.90;;;;;;;8.97;100.00;102317.47;5024255;28;20044;-65
2023/09/24 07:18:39;;;;;;;7.60;4.57;;;;;;;9.02;100.00;102328.09;5028081;28;20092;-64
2023/09/24 07:21:05;;;;;;;7.80;5.05;;;;;;;9.10;100.00;102326.88;5025226;28;20502;-64
2023/09/24 07:23:30;;;;;;;10.07;5.07;;;;;;;9.24;100.00;102324.25;5029236;28;20037;-65
2023/09/24 07:25:55;;;;;;;6.35;4.63;;;;;;;9.33;100.00;102332.59;5023501;28;20066;-65
2023/09/24 07:28:24;;;;;;;9.18;4.70;;;;;;;9.47;100.00;102327.34;5025990;28;20037;-66
2023/09/24 07:30:49;;;;;;;8.38;4.93;;;;;;;9.86;100.00;102334.81;5024186;28;20467;-64
2023/09/24 07:33:15;;;;;;;7.65;5.13;;;;;;;10.42;100.00;102343.19;5029102;28;20506;-64
2023/09/24 07:35:40;;;;;;;6.90;4.38;;;;;;;11.12;100.00;102342.63;5026370;28;20033;-65
2023/09/24 07:38:05;;;;;;;7.40;3.75;;;;;;;11.80;100.00;102345.28;5027372;28;20585;-64
2023/09/24 07:40:30;;;;;;;6.53;3.78;;;;;;;12.60;100.00;102357.00;5019991;28;20247;-64
2023/09/24 07:42:56;;;;;;;6.13;3.25;;;;;;;13.27;100.00;102357.47;5021650;28;20553;-64
2023/09/24 07:45:22;;;;;;;5.53;2.75;;;;;;;13.73;100.00;102351.63;5022141;28;20417;-64
2023/09/24 07:47:47;;;;;;;4.53;2.90;;;;;;;14.36;100.00;102350.75;5020726;28;20052;-64
2023/09/24 07:50:12;;;;;;;4.50;2.95;;;;;;;14.78;100.00;102354.13;5024877;28;20029;-64
2023/09/24 07:52:38;;;;;;;5.88;2.88;;;;;;;15.33;100.00;102370.13;5019529;28;20034;-64
2023/09/24 07:55:04;;;;;;;9.00;2.95;;;;;;;15.71;100.00;102372.31;5026226;28;20159;-65
2023/09/24 07:57:30;;;;;;;3.67;2.30;;;;;;;16.36;100.00;102370.13;5036401;28;20029;-64
2023/09/24 07:59:55;;;;;;;4.85;2.35;;;;;;;16.78;100.00;102373.16;5040571;28;20017;-65
2023/09/24 08:02:21;;;;;;;4.95;2.25;;;;;;;16.83;100.00;102379.44;5043295;28;20032;-64
2023/09/24 08:04:46;;;;;;;3.40;1.90;;;;;;;17.04;100.00;102379.19;5037110;28;20033;-65
2023/09/24 08:07:11;;;;;;;6.40;2.92;;;;;;;17.26;100.00;102377.22;5031721;28;20049;-65
2023/09/24 08:09:38;;;;;;;4.50;2.30;;;;;;;17.56;100.00;102378.03;5029708;28;20477;-64
2023/09/24 08:12:04;;;;;;;6.22;2.80;;;;;;;17.91;98.59;102373.69;5033205;28;20476;-64
2023/09/24 08:14:29;;;;;;;3.65;1.92;;;;;;;17.97;96.22;102377.34;5029001;28;20029;-64
2023/09/24 08:16:54;;;;;;;4.15;2.00;;;;;;;18.08;95.69;102379.38;5032324;28;20021;-65
2023/09/24 08:19:19;;;;;;;3.83;1.80;;;;;;;18.36;97.06;102377.44;5030092;28;20044;-64
2023/09/24 08:21:45;;;;;;;4.68;2.20;;;;;;;18.50;90.49;102375.13;5033326;28;20190;-66
2023/09/24 08:24:10;;;;;;;4.00;1.90;;;;;;;18.64;95.07;102378.06;5030801;28;20044;-64
2023/09/24 08:26:36;;;;;;;2.83;1.80;;;;;;;18.72;92.13;102381.78;5032771;28;20029;-64
2023/09/24 08:29:05;;;;;;;3.80;1.67;;;;;;;18.89;91.14;102378.63;5020330;28;20036;-66
2023/09/24 08:31:31;;;;;;;4.90;1.77;;;;;;;18.91;87.98;102384.78;5033595;28;20021;-65
2023/09/24 08:33:57;;;;;;;5.70;1.90;;;;;;;19.01;87.25;102383.28;5030781;28;20035;-65
2023/09/24 08:36:22;;;;;;;4.10;1.77;;;;;;;18.88;87.95;102382.13;5032375;28;20034;-65
2023/09/24 08:38:48;;;;;;;5.53;1.83;;;;;;;18.98;88.89;102377.06;5038216;28;20025;-65
2023/09/24 08:41:13;;;;;;;4.43;1.90;;;;;;;19.16;87.95;102384.44;5044557;28;20036;-65
2023/09/24 08:43:42;;;;;;;7.40;1.77;;;;;;;19.17;89.45;102387.13;5043386;28;20025;-65
2023/09/24 08:46:08;;;;;;;3.03;1.90;;;;;;;19.21;85.93;102390.72;5022487;28;20025;-65
2023/09/24 08:48:34;;;;;;;3.70;2.05;;;;;;;19.19;87.22;102393.28;5043565;28;20083;-65
2023/09/24 08:51:01;;;;;;;3.50;2.05;;;;;;;19.17;87.39;102389.75;5037507;28;20035;-65
2023/09/24 08:53:29;;;;;;;3.65;1.52;;;;;;;19.26;85.90;102389.06;5011261;28;20040;-65
2023/09/24 08:55:54;;;;;;;2.95;1.40;;;;;;;19.18;84.17;102395.88;5018211;28;20018;-65
2023/09/24 08:58:20;;;;;;;5.25;1.42;;;;;;;19.18;86.68;102385.38;5020813;28;20013;-65
2023/09/24 09:00:45;;;;;;;4.95;1.50;;;;;;;19.12;86.08;102383.53;5019444;28;20115;-64
2023/09/24 09:03:10;;;;;;;4.50;1.75;;;;;;;19.17;86.84;102389.75;5023372;28;20489;-66
2023/09/24 09:05:37;;;;;;;3.83;1.23;;;;;;;19.17;87.73;102389.75;5018985;28;20313;-65
2023/09/24 09:08:03;;;;;;;3.60;1.60;;;;;;;19.11;86.14;102393.94;5023775;28;20125;-65
2023/09/24 09:10:31;;;;;;;3.60;1.30;;;;;;;19.11;90.99;102388.69;5021571;28;20029;-65
2023/09/24 09:13:07;;;;;;;4.63;1.50;;;;;;;18.61;86.44;102388.50;5028045;28;20505;-65
2023/09/24 09:15:33;;;;;;;3.88;1.60;;;;;;;18.57;89.30;102382.31;5021786;28;20544;-66
2023/09/24 09:17:59;;;;;;;5.28;1.40;;;;;;;18.66;91.27;102386.88;5027981;28;20104;-65
2023/09/24 09:20:45;;;;;;;4.28;1.40;;;;;;;18.69;90.01;102376.44;5021705;28;20029;-65
2023/09/24 09:23:13;;;;;;;2.00;1.20;;;;;;;18.72;88.83;102373.00;5016350;28;20033;-66
2023/09/24 09:25:52;;;;;;;3.88;1.85;;;;;;;18.71;87.46;102359.00;5017961;28;20428;-65
2023/09/24 09:28:26;;;;;;;4.20;1.60;;;;;;;18.65;87.86;102363.22;5021967;28;20033;-65
2023/09/24 09:31:08;;;;;;;3.83;1.45;;;;;;;18.52;90.69;102368.19;5024597;28;20513;-65
2023/09/24 09:33:39;;;;;;;4.25;1.35;;;;;;;18.45;89.52;102355.78;5019299;28;20041;-65
2023/09/24 09:36:20;;;;;;;3.65;1.17;;;;;;;18.42;91.00;102361.84;4982388;28;20033;-66
2023/09/24 09:38:45;;;;;;;2.85;1.20;;;;;;;18.08;88.00;102351.38;5015247;28;20029;-66
2023/09/24 09:41:11;;;;;;;1.60;0.88;;;;;;;18.17;92.59;102356.00;5026959;28;20056;-66
2023/09/24 09:43:38;;;;;;;2.58;1.30;;;;;;;18.08;91.86;102340.91;5020402;28;20116;-66
2023/09/24 09:46:07;;;;;;;2.17;1.40;;;;;;;17.91;89.54;102348.34;5026583;28;20420;-66
2023/09/24 09:48:33;;;;;;;4.93;1.48;;;;;;;17.96;91.71;102341.50;5023819;28;20382;-66
2023/09/24 09:51:02;;;;;;;2.75;1.30;;;;;;;17.95;95.07;102339.69;5039672;28;20397;-66
2023/09/24 09:53:34;;;;;;;4.93;1.45;;;;;;;17.93;96.41;102341.41;5036315;28;20371;-67
2023/09/24 09:56:05;;;;;;;3.53;1.20;;;;;;;17.94;95.49;102324.81;5029358;28;20036;-66
2023/09/24 09:58:33;;;;;;;3.20;1.35;;;;;;;17.82;92.67;102337.63;5017120;28;20036;-66
2023/09/24 10:01:00;;;;;;;2.88;1.58;;;;;;;17.80;93.78;102334.06;5018938;28;20164;-66
2023/09/24 10:03:26;;;;;;;2.60;0.90;;;;;;;17.85;96.00;102332.44;5023625;28;20022;-67
2023/09/24 10:05:53;;;;;;;3.22;1.17;;;;;;;17.88;95.94;102322.06;5013539;28;20044;-66
2023/09/24 10:08:48;;;;;;;2.03;1.00;;;;;;;17.81;92.64;102325.38;5014713;28;20041;-66
2023/09/24 10:11:33;;;;;;;2.88;1.10;;;;;;;17.76;92.38;102318.28;5014224;28;20060;-67
2023/09/24 10:14:05;;;;;;;3.72;1.08;;;;;;;17.71;90.10;102314.66;5022219;28;20482;-67
2023/09/24 10:16:38;;;;;;;1.98;0.75;;;;;;;17.55;89.65;102313.38;5016515;28;20053;-67
2023/09/24 10:19:09;;;;;;;3.33;1.25;;;;;;;17.68;92.78;102313.69;5013394;28;20032;-66
2023/09/24 10:21:36;;;;;;;2.92;0.88;;;;;;;17.74;91.29;102306.84;5014809;28;20472;-66
2023/09/24 10:24:04;;;;;;;2.88;1.40;;;;;;;17.86;92.65;102306.28;5016351;28;20536;-66
2023/09/24 10:26:48;;;;;;;2.88;0.85;;;;;;;18.00;95.21;102306.63;5008390;28;20029;-67
2023/09/24 10:29:15;;;;;;;5.00;0.98;;;;;;;18.10;92.94;102304.22;5012298;28;20122;-66
2023/09/24 10:32:09;;;;;;;3.38;1.15;;;;;;;17.89;86.57;102300.22;5013223;28;20397;-66
2023/09/24 10:34:57;;;;;;;3.30;0.70;;;;;;;18.07;89.86;102298.91;5007739;28;20669;-66
2023/09/24 10:37:26;;;;;;;2.67;1.17;;;;;;;18.21;91.17;102302.78;5023114;28;20040;-67
2023/09/24 10:39:57;;;;;;;2.67;1.17;;;;;;;18.30;86.45;102298.56;5021817;28;20020;-65
2023/09/24 10:42:23;;;;;;;2.20;0.90;;;;;;;18.36;85.30;102298.72;5023839;28;20029;-67
2023/09/24 10:45:14;;;;;;;1.95;0.90;;;;;;;18.53;86.76;102290.34;5028238;28;20051;-67
2023/09/24 10:47:44;;;;;;;1.63;0.82;;;;;;;18.70;85.60;102298.59;5019459;28;20041;-66
2023/09/24 10:50:14;;;;;;;2.05;0.90;;;;;;;18.64;78.79;102294.06;5037985;28;20067;-66
2023/09/24 10:52:52;;;;;;;2.13;0.80;;;;;;;18.73;79.55;102296.00;5015521;28;20490;-65
2023/09/24 10:55:19;;;;;;;3.10;1.02;;;;;;;18.66;78.85;102287.13;5029701;28;20037;-67
2023/09/24 10:57:53;;;;;;;2.65;0.95;;;;;;;18.81;79.25;102299.69;5015634;28;20034;-66
2023/09/24 11:00:18;;;;;;;1.75;0.75;;;;;;;18.96;78.75;102296.47;5026638;28;20040;-65
2023/09/24 11:02:44;;;;;;;2.20;0.82;;;;;;;18.86;74.15;102294.53;5025679;28;20623;-66
2023/09/24 11:05:10;;;;;;;2.30;1.00;;;;;;;18.87;75.47;102293.66;5015014;28;20132;-66
2023/09/24 11:07:35;;;;;;;2.03;0.90;;;;;;;19.02;77.16;102290.47;5028845;28;20140;-66
2023/09/24 11:10:01;;;;;;;4.55;1.10;;;;;;;18.84;73.73;102301.50;5032764;28;20079;-66
2023/09/24 11:12:26;;;;;;;1.23;0.98;;;;;;;18.73;73.42;102293.38;5029678;28;20037;-67
2023/09/24 11:15:01;;;;;;;2.50;0.90;;;;;;;18.85;73.51;102292.78;5028691;28;20053;-67
2023/09/24 11:17:27;;;;;;;1.50;1.02;;;;;;;19.04;76.93;102285.25;5028512;28;20021;-67
2023/09/24 11:19:52;;;;;;;2.88;1.00;;;;;;;19.17;75.45;102282.06;5034586;28;20071;-67
2023/09/24 11:22:19;;;;;;;2.78;1.15;;;;;;;19.23;72.37;102285.66;5017938;28;20198;-67
2023/09/24 11:25:09;;;;;;;1.88;1.00;;;;;;;19.23;70.58;102294.38;5024578;28;20037;-67